»·PEaware :: N1021M KPDX-KFHR

N1021M :: KPDX-KFHR

FLIGHT INFORMATION

Flight Status: Arrived
Operator: Privately registered:
United States
More flights under this callsign
Pilot: Matthew M. (27032)
Aircraft: SOCATA TBM-900
(TBM9)
More flights by this aircraft type
Origin: KPDX Portland Intl
United States
Destination: KFHR Friday Harbor
United States
More flights between these airports :: More routes between these airports
Route: PTLD1 BTG V287 OLM V165 DIGGN V495 WATTR
File this flight plan on PilotEdge
Remarks:
Altitude:
(Current/Filed)
24,000ft
Speed:
(Current/Filed)
300kts
Departed: 07-Jul-20 12:25 PM
Arrived: 07-Jul-20 01:35 PM
Distance/Time
Traveled:
177nm/1:09
Distance/Time
To Go:
Arrived

Flight Plot

Page will automatically refresh every two minutes.


Map Options




Map Legend


Flown Route
Filed Route
Departure Airport
Arrival Airport
Navaid (VOR, NDB)
Fix

Horizontal Profiles

Position Reports

Time Latitude Longitude Heading Altitude Ground
Speed
07-Jul-20 12:03 45.586511 -122.581953 313 25ft 0kts
07-Jul-20 12:04 45.586865 -122.582577 297 26ft 2kts
07-Jul-20 12:05 45.586979 -122.582887 295 26ft 0kts
07-Jul-20 12:06 45.586979 -122.582887 295 26ft 0kts
07-Jul-20 12:07 45.586979 -122.582887 295 26ft 0kts
07-Jul-20 12:08 45.586979 -122.582887 295 26ft 0kts
07-Jul-20 12:09 45.586979 -122.582887 295 26ft 0kts
07-Jul-20 12:10 45.586979 -122.582887 295 26ft 0kts
07-Jul-20 12:11 45.586979 -122.582887 295 26ft 0kts
07-Jul-20 12:12 45.586979 -122.582887 295 26ft 0kts
07-Jul-20 12:13 45.586979 -122.582887 295 26ft 0kts
07-Jul-20 12:14 45.586979 -122.582887 295 26ft 0kts
07-Jul-20 12:15 45.586979 -122.582887 295 26ft 0kts
07-Jul-20 12:16 45.586979 -122.582887 295 26ft 0kts
07-Jul-20 12:17 45.586979 -122.582887 295 26ft 0kts
07-Jul-20 12:18 45.586979 -122.582887 295 26ft 0kts
07-Jul-20 12:19 45.586979 -122.582887 295 26ft 0kts
07-Jul-20 12:20 45.587443 -122.583089 16 26ft 8kts
07-Jul-20 12:21 45.590442 -122.587699 298 28ft 25kts
07-Jul-20 12:22 45.593822 -122.596396 297 27ft 20kts
07-Jul-20 12:23 45.594736 -122.595295 119 29ft 19kts
07-Jul-20 12:24 45.585050 -122.563639 74 803ft 125kts
07-Jul-20 12:25 45.596675 -122.509178 70 2677ft 151kts
07-Jul-20 12:26 45.621665 -122.470501 353 4622ft 151kts
07-Jul-20 12:27 45.661475 -122.483949 338 6573ft 145kts
07-Jul-20 12:28 45.701882 -122.502212 339 8501ft 153kts
07-Jul-20 12:29 45.732536 -122.515771 340 9989ft 156kts
07-Jul-20 12:30 45.774815 -122.534664 336 11848ft 166kts
07-Jul-20 12:31 45.819627 -122.554668 336 13591ft 173kts
07-Jul-20 12:32 45.866024 -122.575474 335 15387ft 177kts
07-Jul-20 12:33 45.913666 -122.596879 335 17246ft 182kts
07-Jul-20 12:34 45.961664 -122.618492 335 18873ft 187kts
07-Jul-20 12:35 45.961664 -122.618492 335 18873ft 187kts
07-Jul-20 12:36 45.961664 -122.618492 335 18873ft 187kts
07-Jul-20 12:37 45.961664 -122.618492 335 18873ft 187kts
07-Jul-20 12:38 45.961664 -122.618492 335 18873ft 187kts
07-Jul-20 12:39 45.961664 -122.618492 335 18873ft 187kts
07-Jul-20 12:59 46.312319 -122.590657 355 17589ft 235kts
07-Jul-20 13:00 46.375783 -122.585523 355 19596ft 206kts
07-Jul-20 13:01 46.429802 -122.599418 331 21420ft 194kts
07-Jul-20 13:02 46.477002 -122.625688 332 22830ft 200kts
07-Jul-20 13:03 46.530550 -122.655351 332 24190ft 215kts
07-Jul-20 13:04 46.592385 -122.689680 333 24185ft 252kts
07-Jul-20 13:05 46.660183 -122.727362 333 24177ft 265kts
07-Jul-20 13:06 46.729956 -122.766255 333 24175ft 269kts
07-Jul-20 13:07 46.800238 -122.805543 333 24169ft 271kts
07-Jul-20 13:08 46.870767 -122.845088 333 24164ft 271kts
07-Jul-20 13:09 46.941867 -122.885060 333 24164ft 270kts
07-Jul-20 13:10 47.017675 -122.895687 358 24163ft 281kts
07-Jul-20 13:11 47.096189 -122.884858 358 24162ft 279kts
07-Jul-20 13:12 47.173367 -122.874291 358 24166ft 279kts
07-Jul-20 13:13 47.250847 -122.863656 358 24161ft 279kts
07-Jul-20 13:14 47.328351 -122.852983 358 24153ft 279kts
07-Jul-20 13:15 47.405986 -122.842259 358 24081ft 282kts
07-Jul-20 13:16 47.489566 -122.830740 359 22116ft 314kts
07-Jul-20 13:17 47.577968 -122.818445 0 19812ft 327kts
07-Jul-20 13:18 47.669016 -122.805715 1 17306ft 330kts
07-Jul-20 13:19 47.759001 -122.792922 1 14796ft 322kts
07-Jul-20 13:20 47.844025 -122.782324 351 12275ft 286kts
07-Jul-20 13:22 47.918046 -122.820927 337 10156ft 269kts
07-Jul-20 13:23 47.988772 -122.859289 337 8095ft 262kts
07-Jul-20 13:24 48.056868 -122.896245 337 7045ft 255kts
07-Jul-20 13:25 48.124852 -122.933239 337 6618ft 256kts
07-Jul-20 13:26 48.190571 -122.960872 343 4584ft 230kts
07-Jul-20 13:27 48.249205 -122.983497 343 2591ft 216kts
07-Jul-20 13:28 48.302555 -123.004128 344 2008ft 176kts
07-Jul-20 13:29 48.347958 -123.010920 356 2011ft 157kts
07-Jul-20 13:30 48.390511 -123.014204 355 2009ft 151kts
07-Jul-20 13:31 48.429806 -123.017228 355 1913ft 134kts
07-Jul-20 13:32 48.461205 -123.019655 355 1301ft 105kts
07-Jul-20 13:33 48.489471 -123.021846 355 691ft 95kts
07-Jul-20 13:34 48.514849 -123.023782 353 172ft 89kts
07-Jul-20 13:35 48.526503 -123.024826 305 118ft 2kts
07-Jul-20 13:36 48.524645 -123.026015 175 116ft 0kts
07-Jul-20 13:37 48.524645 -123.026015 175 116ft 0kts
07-Jul-20 13:37 48.524645 -123.026015 175 116ft 0kts
07-Jul-20 13:38 48.524645 -123.026015 175 116ft 0kts
07-Jul-20 13:40 48.524645 -123.026015 175 116ft 0kts

Navigation Log

Ident Type
Flight plan parsing failed, navigation log unavailable